Belle Chasse — WDG2912 — position and weather

sailwx.info

Track history (hours):
 
Tides and Currents Weather Stations Pressure Air Temp Water Temp Dewpoint Dewpoint Depression Visibility Wind Speed Wind Dir Waves Ship Positions

Belle Chasse

Owner: Higman Barge Lines, Inc, Orange, TX. More information available from US FCC via Universal Licensing System and Coast Guard Vessel Documentation Center.

Last reported at 2016-Feb-06 10:23 UTC. Time now 2016-Feb-07 15:03 UTC.
Position N 29°22' W 094°50'.

Length 26 m; draft 3 m.

Type: Towing. MMSI: 367520550.

Date/timePositionNaut miles runAvg speedWind from/ knotsBaromVisibWave heightAir tempDewpointWater temp
2016-Feb-06 10:23N 29°22' W 094°50'  
2016-Feb-02 23:20N 29°24' W 094°45'1 1.0
2016-Feb-02 22:27N 29°23' W 094°46'2 0.1
2016-Feb-01 23:30N 29°25' W 094°44'  
2016-Jan-30 11:32N 29°26' W 094°43'14 4.6
2016-Jan-30 08:25N 29°33' W 094°28'4 3.4
2016-Jan-30 07:23N 29°35' W 094°25'5 5.0
2016-Jan-30 06:18N 29°37' W 094°20'1 1.5
2016-Jan-30 05:17N 29°38' W 094°18'3 4.7
2016-Jan-30 04:33N 29°40' W 094°15'4 4.3
2016-Jan-30 03:33N 29°41' W 094°10'4 4.4
2016-Jan-30 02:33N 29°44' W 094°06'4 4.1
2016-Jan-30 01:31N 29°47' W 094°02'4 3.9
2016-Jan-30 00:34N 29°49' W 093°59'2 1.9
2016-Jan-29 23:33N 29°50' W 093°57'9 1.3
2016-Jan-29 16:21N 29°58' W 093°52'0 0.0
2016-Jan-29 15:30N 29°58' W 093°52'0 0.0
2016-Jan-29 14:33N 29°58' W 093°52'0 0.0
2016-Jan-29 13:33N 29°58' W 093°52'0 0.0
2016-Jan-29 12:33N 29°58' W 093°52'0 0.0
2016-Jan-29 11:30N 29°58' W 093°52'0 0.0
2016-Jan-29 10:33N 29°58' W 093°52'0 0.0
2016-Jan-29 09:30N 29°58' W 093°52'0 0.0
2016-Jan-29 08:33N 29°58' W 093°52'0 0.0
2016-Jan-29 07:33N 29°58' W 093°52'0 0.0
2016-Jan-29 06:33N 29°58' W 093°52'0 0.0
2016-Jan-29 05:33N 29°58' W 093°52'0 0.0
2016-Jan-29 04:33N 29°58' W 093°52'0 0.0
2016-Jan-29 03:33N 29°58' W 093°52'0 0.0
2016-Jan-29 02:30N 29°58' W 093°52'0 0.0
2016-Jan-29 01:33N 29°58' W 093°52'0 0.0
2016-Jan-29 00:33N 29°58' W 093°52'0 0.0
2016-Jan-28 15:30N 29°58' W 093°52'0 0.0
2016-Jan-28 14:33N 29°58' W 093°52'0 0.0
2016-Jan-28 13:33N 29°58' W 093°52'0 0.0
2016-Jan-28 12:33N 29°58' W 093°52'0 0.0
2016-Jan-28 11:33N 29°58' W 093°52'0 0.0
2016-Jan-28 10:33N 29°58' W 093°52'0 0.0
2016-Jan-28 09:30N 29°58' W 093°52'0 0.0
2016-Jan-28 08:33N 29°58' W 093°52'0 0.0
2016-Jan-28 07:27N 29°58' W 093°52'0 0.0
2016-Jan-28 06:33N 29°58' W 093°52'0 0.0
2016-Jan-28 05:30N 29°58' W 093°52'0 0.0
2016-Jan-28 04:33N 29°58' W 093°52'0 0.1
2016-Jan-28 03:33N 29°58' W 093°52'1 0.1
2016-Jan-27 18:24N 29°59' W 093°52'  
Track history (hours):
 
Tides and Currents Weather Stations Pressure Air Temp Water Temp Dewpoint Dewpoint Depression Visibility Wind Speed Wind Dir Waves Ship Positions

Belle Chasse

Owner: Higman Barge Lines, Inc, Orange, TX. More information available from US FCC via Universal Licensing System and Coast Guard Vessel Documentation Center.

Last reported at 2016-Feb-06 10:23 UTC. Time now 2016-Feb-07 15:03 UTC.
Position N 29°22' W 094°50'.

Length 26 m; draft 3 m.

Type: Towing. MMSI: 367520550.

Date/timePositionNaut miles runAvg speedWind from/ knotsBaromVisibWave heightAir tempDewpointWater temp
2016-Feb-06 10:23N 29°22' W 094°50'  
2016-Feb-02 23:20N 29°24' W 094°45'1 1.0
2016-Feb-02 22:27N 29°23' W 094°46'2 0.1
2016-Feb-01 23:30N 29°25' W 094°44'  
2016-Jan-30 11:32N 29°26' W 094°43'14 4.6
2016-Jan-30 08:25N 29°33' W 094°28'4 3.4
2016-Jan-30 07:23N 29°35' W 094°25'5 5.0
2016-Jan-30 06:18N 29°37' W 094°20'1 1.5
2016-Jan-30 05:17N 29°38' W 094°18'3 4.7
2016-Jan-30 04:33N 29°40' W 094°15'4 4.3
2016-Jan-30 03:33N 29°41' W 094°10'4 4.4
2016-Jan-30 02:33N 29°44' W 094°06'4 4.1
2016-Jan-30 01:31N 29°47' W 094°02'4 3.9
2016-Jan-30 00:34N 29°49' W 093°59'2 1.9
2016-Jan-29 23:33N 29°50' W 093°57'9 1.3
2016-Jan-29 16:21N 29°58' W 093°52'0 0.0
2016-Jan-29 15:30N 29°58' W 093°52'0 0.0
2016-Jan-29 14:33N 29°58' W 093°52'0 0.0
2016-Jan-29 13:33N 29°58' W 093°52'0 0.0
2016-Jan-29 12:33N 29°58' W 093°52'0 0.0
2016-Jan-29 11:30N 29°58' W 093°52'0 0.0
2016-Jan-29 10:33N 29°58' W 093°52'0 0.0
2016-Jan-29 09:30N 29°58' W 093°52'0 0.0
2016-Jan-29 08:33N 29°58' W 093°52'0 0.0
2016-Jan-29 07:33N 29°58' W 093°52'0 0.0
2016-Jan-29 06:33N 29°58' W 093°52'0 0.0
2016-Jan-29 05:33N 29°58' W 093°52'0 0.0
2016-Jan-29 04:33N 29°58' W 093°52'0 0.0
2016-Jan-29 03:33N 29°58' W 093°52'0 0.0
2016-Jan-29 02:30N 29°58' W 093°52'0 0.0
2016-Jan-29 01:33N 29°58' W 093°52'0 0.0
2016-Jan-29 00:33N 29°58' W 093°52'0 0.0
2016-Jan-28 15:30N 29°58' W 093°52'0 0.0
2016-Jan-28 14:33N 29°58' W 093°52'0 0.0
2016-Jan-28 13:33N 29°58' W 093°52'0 0.0
2016-Jan-28 12:33N 29°58' W 093°52'0 0.0
2016-Jan-28 11:33N 29°58' W 093°52'0 0.0
2016-Jan-28 10:33N 29°58' W 093°52'0 0.0
2016-Jan-28 09:30N 29°58' W 093°52'0 0.0
2016-Jan-28 08:33N 29°58' W 093°52'0 0.0
2016-Jan-28 07:27N 29°58' W 093°52'0 0.0
2016-Jan-28 06:33N 29°58' W 093°52'0 0.0
2016-Jan-28 05:30N 29°58' W 093°52'0 0.0
2016-Jan-28 04:33N 29°58' W 093°52'0 0.1
2016-Jan-28 03:33N 29°58' W 093°52'1 0.1
2016-Jan-27 18:24N 29°59' W 093°52'  

Dump ship's entire track history